createdAt,value
2023-04-03T00:00:41.024Z,13.40
2023-04-03T00:03:07.746Z,11.82
2023-04-03T00:05:34.379Z,13.98
2023-04-03T00:08:02.930Z,12.90
2023-04-03T00:10:29.440Z,12.95
2023-04-03T00:12:56.023Z,12.82
2023-04-03T00:15:22.577Z,13.90
2023-04-03T00:17:49.216Z,10.63
2023-04-03T00:20:15.776Z,10.73
2023-04-03T00:22:42.337Z,10.32
2023-04-03T00:25:09.285Z,11.23
2023-04-03T00:27:37.320Z,10.55
2023-04-03T00:30:04.049Z,10.48
2023-04-03T00:32:31.038Z,9.63
2023-04-03T00:34:57.589Z,9.82
2023-04-03T00:37:25.382Z,10.45
2023-04-03T00:39:52.033Z,9.40
2023-04-03T00:42:18.555Z,10.93
2023-04-03T00:44:45.265Z,11.05
2023-04-03T00:47:12.878Z,10.85
2023-04-03T00:49:39.980Z,9.70
2023-04-03T00:52:09.201Z,13.13
2023-04-03T00:54:37.510Z,11.90
2023-04-03T00:57:04.327Z,13.60
2023-04-03T00:59:35.440Z,15.00
2023-04-03T01:02:02.197Z,13.02
2023-04-03T01:04:33.726Z,13.23
2023-04-03T01:07:07.615Z,14.65
2023-04-03T01:09:34.665Z,14.50
2023-04-03T01:12:21.495Z,12.63
2023-04-03T01:14:50.668Z,14.73
2023-04-03T01:17:31.797Z,16.05
2023-04-03T01:20:08.617Z,14.48
2023-04-03T01:22:55.396Z,14.50
2023-04-03T01:25:21.962Z,14.07
2023-04-03T01:27:48.576Z,15.02
2023-04-03T01:30:17.340Z,14.35
2023-04-03T01:32:44.113Z,13.63
2023-04-03T01:35:12.813Z,14.95
2023-04-03T01:37:39.607Z,14.68
2023-04-03T01:40:06.626Z,14.13
2023-04-03T01:42:33.772Z,14.27
2023-04-03T01:45:00.271Z,14.45
2023-04-03T01:47:26.993Z,16.40
2023-04-03T01:49:53.536Z,14.43
2023-04-03T01:52:20.406Z,16.50
2023-04-03T01:54:46.969Z,16.30
2023-04-03T01:57:14.539Z,17.08
2023-04-03T01:59:41.286Z,18.70
2023-04-03T02:02:07.996Z,17.98
2023-04-03T02:04:34.494Z,19.83
2023-04-03T02:07:01.212Z,19.33
2023-04-03T02:09:27.771Z,18.45
2023-04-03T02:11:54.273Z,18.17
2023-04-03T02:14:22.943Z,19.58
2023-04-03T02:16:49.515Z,17.95
2023-04-03T02:19:16.100Z,18.75
2023-04-03T02:21:42.739Z,18.02
2023-04-03T02:24:09.231Z,17.88
2023-04-03T02:26:35.908Z,19.52
2023-04-03T02:29:03.689Z,19.85
2023-04-03T02:31:30.402Z,17.30
2023-04-03T02:33:58.701Z,17.42
2023-04-03T02:36:25.694Z,18.35
2023-04-03T02:38:56.463Z,17.90
2023-04-03T02:41:23.008Z,17.80
2023-04-03T02:43:51.270Z,20.27
2023-04-03T02:46:18.118Z,22.33
2023-04-03T02:48:44.654Z,22.00
2023-04-03T02:51:11.195Z,24.45
2023-04-03T02:53:37.760Z,25.98
2023-04-03T02:56:10.796Z,26.95
2023-04-03T02:58:37.476Z,27.50
2023-04-03T03:01:05.691Z,27.13
2023-04-03T03:03:32.466Z,29.20
2023-04-03T03:06:03.137Z,27.90
2023-04-03T03:08:29.818Z,28.55
2023-04-03T03:10:56.367Z,26.98
2023-04-03T03:13:22.886Z,26.80
2023-04-03T03:15:49.396Z,27.13
2023-04-03T03:18:15.962Z,26.08
2023-04-03T03:20:42.455Z,25.70
2023-04-03T03:23:09.351Z,25.60
2023-04-03T03:25:42.298Z,24.52
2023-04-03T03:28:08.836Z,23.42
2023-04-03T03:30:36.163Z,23.40
2023-04-03T03:33:02.946Z,21.75
2023-04-03T03:35:29.950Z,22.42
2023-04-03T03:37:56.610Z,19.08
2023-04-03T03:40:23.674Z,19.80
2023-04-03T03:42:50.424Z,22.02
2023-04-03T03:45:17.171Z,20.20
2023-04-03T03:47:43.892Z,21.40
2023-04-03T03:50:10.848Z,22.52
2023-04-03T03:52:37.346Z,22.15
2023-04-03T03:55:04.173Z,21.42
2023-04-03T03:57:31.466Z,22.67
2023-04-03T03:59:58.290Z,23.40
2023-04-03T04:02:25.310Z,24.52
2023-04-03T04:04:53.403Z,23.73
2023-04-03T04:07:20.552Z,23.10
2023-04-03T04:09:47.430Z,24.92
2023-04-03T04:12:14.150Z,22.98
2023-04-03T04:14:41.091Z,23.42
2023-04-03T04:17:09.888Z,25.05
2023-04-03T04:19:37.297Z,22.30
2023-04-03T04:22:03.966Z,21.90
2023-04-03T04:24:31.952Z,22.73
2023-04-03T04:26:59.410Z,21.52
2023-04-03T04:29:26.141Z,23.60
2023-04-03T04:31:53.169Z,19.60
2023-04-03T04:34:21.013Z,19.08
2023-04-03T04:36:48.048Z,21.60
2023-04-03T04:39:14.609Z,21.45
2023-04-03T04:41:41.483Z,18.13
2023-04-03T04:44:09.273Z,18.00
2023-04-03T04:46:36.504Z,18.48
2023-04-03T04:49:04.121Z,15.63
2023-04-03T04:51:41.028Z,17.58
2023-04-03T04:54:16.357Z,19.20
2023-04-03T04:56:43.553Z,17.45
2023-04-03T04:59:10.535Z,19.23
2023-04-03T05:01:37.145Z,16.80
2023-04-03T05:04:14.914Z,20.85
2023-04-03T05:06:41.809Z,17.77
2023-04-03T05:09:13.805Z,17.17
2023-04-03T05:11:42.219Z,19.38
2023-04-03T05:14:08.688Z,20.13
2023-04-03T05:16:36.331Z,19.25
2023-04-03T05:19:02.906Z,19.20
2023-04-03T05:21:33.030Z,21.08
2023-04-03T05:24:03.792Z,18.80
2023-04-03T05:26:32.878Z,16.95
2023-04-03T05:28:59.965Z,18.58
2023-04-03T05:31:27.006Z,18.55
2023-04-03T05:33:53.758Z,16.88
2023-04-03T05:36:21.148Z,17.00
2023-04-03T05:38:53.071Z,17.23
2023-04-03T05:41:21.764Z,17.10
2023-04-03T05:43:50.480Z,16.75
2023-04-03T05:46:19.476Z,16.60
2023-04-03T05:48:50.919Z,15.18
2023-04-03T05:51:23.522Z,12.00
2023-04-03T05:53:55.960Z,12.90
2023-04-03T05:56:22.905Z,12.87
2023-04-03T05:58:49.349Z,11.70
2023-04-03T06:01:17.118Z,11.63
2023-04-03T06:03:44.603Z,10.00
2023-04-03T06:06:14.018Z,8.53
2023-04-03T06:08:40.664Z,8.57
2023-04-03T06:11:07.733Z,9.07
2023-04-03T06:13:34.395Z,8.23
2023-04-03T06:16:00.902Z,9.00
2023-04-03T06:18:27.794Z,8.13
2023-04-03T06:20:54.357Z,7.37
2023-04-03T06:23:21.211Z,7.70
2023-04-03T06:25:48.053Z,8.23
2023-04-03T06:28:14.636Z,6.90
2023-04-03T06:30:41.485Z,7.07
2023-04-03T06:33:08.061Z,6.30
2023-04-03T06:35:35.981Z,7.13
2023-04-03T06:38:02.825Z,7.10
2023-04-03T06:40:29.362Z,6.27
2023-04-03T06:42:55.885Z,5.90
2023-04-03T06:45:22.752Z,5.90
2023-04-03T06:47:49.330Z,5.80
2023-04-03T06:50:16.170Z,6.00
2023-04-03T06:52:42.869Z,5.80
2023-04-03T06:55:10.512Z,6.07
2023-04-03T06:57:37.630Z,5.90
2023-04-03T07:00:05.595Z,5.67
2023-04-03T07:02:32.108Z,6.87
2023-04-03T07:04:58.674Z,6.23
2023-04-03T07:07:25.339Z,5.67
2023-04-03T07:09:52.048Z,5.53
2023-04-03T07:12:18.557Z,4.63
2023-04-03T07:14:45.023Z,4.60
2023-04-03T07:17:11.752Z,6.00
2023-04-03T07:19:38.280Z,5.00
2023-04-03T07:22:04.820Z,5.20
2023-04-03T07:24:31.404Z,6.33
2023-04-03T07:26:58.294Z,4.67
2023-04-03T07:29:25.169Z,5.40
2023-04-03T07:31:52.424Z,6.33
2023-04-03T07:34:19.033Z,5.57
2023-04-03T07:36:45.544Z,5.77
2023-04-03T07:39:12.121Z,4.43
2023-04-03T07:41:39.007Z,5.07
2023-04-03T07:44:06.570Z,5.70
2023-04-03T07:46:33.321Z,5.70
2023-04-03T07:48:59.820Z,5.70
2023-04-03T07:51:27.703Z,4.47
2023-04-03T07:53:54.175Z,4.07
2023-04-03T07:56:21.724Z,5.27
2023-04-03T07:58:48.266Z,4.50
2023-04-03T08:01:14.921Z,4.33
2023-04-03T08:03:41.676Z,3.70
2023-04-03T08:06:11.998Z,3.33
2023-04-03T08:08:42.286Z,4.57
2023-04-03T08:11:09.424Z,3.60
2023-04-03T08:13:36.643Z,3.70
2023-04-03T08:16:13.715Z,3.20
2023-04-03T08:18:40.354Z,4.03
2023-04-03T08:21:08.424Z,3.03
2023-04-03T08:23:35.005Z,4.37
2023-04-03T08:26:06.485Z,3.37
2023-04-03T08:28:33.420Z,3.93
2023-04-03T08:31:03.949Z,4.03
2023-04-03T08:33:30.493Z,3.30
2023-04-03T08:35:57.091Z,4.00
2023-04-03T08:38:23.644Z,3.00
2023-04-03T08:41:00.660Z,3.07
2023-04-03T08:43:34.752Z,3.40
2023-04-03T08:46:03.644Z,2.90
2023-04-03T08:48:36.008Z,4.83
2023-04-03T08:51:12.182Z,3.10
2023-04-03T08:53:41.011Z,2.30
2023-04-03T08:56:09.476Z,2.30
2023-04-03T08:58:53.812Z,2.90
2023-04-03T09:01:37.247Z,2.30
2023-04-03T09:04:10.801Z,2.73
2023-04-03T09:06:39.253Z,3.67
2023-04-03T09:09:21.680Z,3.10
2023-04-03T09:11:48.239Z,3.10
2023-04-03T09:14:17.884Z,2.80
2023-04-03T09:16:50.614Z,2.90
2023-04-03T09:19:37.391Z,2.87
2023-04-03T09:22:14.012Z,3.47
2023-04-03T09:24:41.336Z,2.70
2023-04-03T09:27:10.377Z,2.30
2023-04-03T09:29:39.615Z,1.37
2023-04-03T09:32:26.450Z,2.27
2023-04-03T09:34:54.461Z,2.23
2023-04-03T09:37:44.489Z,1.97
2023-04-03T09:40:28.988Z,1.60
2023-04-03T09:43:01.578Z,1.60
2023-04-03T09:45:30.351Z,1.40
2023-04-03T09:48:16.858Z,2.27
2023-04-03T09:51:02.676Z,1.50
2023-04-03T09:53:34.653Z,1.40
2023-04-03T09:56:01.865Z,2.00
2023-04-03T09:58:49.196Z,0.97
2023-04-03T10:01:33.454Z,1.10
2023-04-03T10:04:09.455Z,1.40
2023-04-03T10:06:38.246Z,2.03
2023-04-03T10:09:17.373Z,1.30
2023-04-03T10:12:15.431Z,1.50
2023-04-03T10:14:56.429Z,1.47
2023-04-03T10:17:29.121Z,1.50
2023-04-03T10:20:16.600Z,0.90
2023-04-03T10:22:56.237Z,1.00
2023-04-03T10:25:31.450Z,1.20
2023-04-03T10:28:02.273Z,1.33
2023-04-03T10:30:51.347Z,1.10
2023-04-03T10:33:41.455Z,2.40
2023-04-03T10:36:23.016Z,0.90
2023-04-03T10:38:56.702Z,1.90
2023-04-03T10:41:29.578Z,1.23
2023-04-03T10:43:56.565Z,1.83
2023-04-03T10:46:35.301Z,1.23
2023-04-03T10:49:08.248Z,1.40
2023-04-03T10:51:49.076Z,2.03
2023-04-03T10:54:44.936Z,1.20
2023-04-03T10:57:13.950Z,1.40
2023-04-03T10:59:57.967Z,1.43
2023-04-03T11:02:25.250Z,1.47
2023-04-03T11:04:59.894Z,1.50
2023-04-03T11:07:33.787Z,1.17
2023-04-03T11:10:03.546Z,1.00
2023-04-03T11:12:37.372Z,1.10
2023-04-03T11:15:04.361Z,1.33
2023-04-03T11:17:41.270Z,1.20
2023-04-03T11:20:07.968Z,1.90
2023-04-03T11:22:38.645Z,1.17
2023-04-03T11:25:11.526Z,1.50
2023-04-03T11:28:02.712Z,1.23
2023-04-03T11:30:32.426Z,1.23
2023-04-03T11:33:04.997Z,1.60
2023-04-03T11:35:32.163Z,1.53
2023-04-03T11:38:00.914Z,1.60
2023-04-03T11:40:31.041Z,1.40
2023-04-03T11:43:00.665Z,1.93
2023-04-03T11:45:32.600Z,1.60
2023-04-03T11:48:04.872Z,2.03
2023-04-03T11:50:41.253Z,1.97
2023-04-03T11:53:08.070Z,1.73
2023-04-03T11:55:35.310Z,0.80
2023-04-03T11:58:03.002Z,2.00
2023-04-03T12:00:45.842Z,1.40
2023-04-03T12:03:28.219Z,1.43
2023-04-03T12:06:07.618Z,1.50
2023-04-03T12:08:34.189Z,1.63
2023-04-03T12:11:10.105Z,1.50
2023-04-03T12:13:36.752Z,2.30
2023-04-03T12:16:04.803Z,1.60
2023-04-03T12:18:42.580Z,1.37
2023-04-03T12:21:09.891Z,2.10
2023-04-03T12:23:39.639Z,1.30
2023-04-03T12:26:20.759Z,1.73
2023-04-03T12:28:47.834Z,1.97
2023-04-03T12:31:14.633Z,2.17
2023-04-03T12:33:58.926Z,1.70
2023-04-03T12:36:34.943Z,1.93
2023-04-03T12:39:01.786Z,1.63
2023-04-03T12:41:28.451Z,1.40
2023-04-03T12:44:07.504Z,1.20
2023-04-03T12:46:38.524Z,1.57
2023-04-03T12:49:15.491Z,1.27
2023-04-03T12:51:43.605Z,1.10
2023-04-03T12:54:21.347Z,1.07
2023-04-03T12:56:48.033Z,1.40
2023-04-03T12:59:18.454Z,0.70
2023-04-03T13:01:45.557Z,1.30
2023-04-03T13:04:13.378Z,1.37
2023-04-03T13:06:44.496Z,1.23
2023-04-03T13:09:22.290Z,1.10
2023-04-03T13:11:49.864Z,1.50
2023-04-03T13:14:18.435Z,1.00
2023-04-03T13:16:56.408Z,1.20
2023-04-03T13:19:23.988Z,1.00
2023-04-03T13:21:52.735Z,1.53
2023-04-03T13:24:19.545Z,1.67
2023-04-03T13:26:46.389Z,1.70
2023-04-03T13:29:29.915Z,1.00
2023-04-03T13:31:58.995Z,1.73
2023-04-03T13:34:28.758Z,1.37
2023-04-03T13:36:57.087Z,1.33
2023-04-03T13:39:23.655Z,1.80
2023-04-03T13:41:54.994Z,1.20
2023-04-03T13:44:24.733Z,0.87
2023-04-03T13:46:52.812Z,1.30
2023-04-03T13:49:36.939Z,1.30
2023-04-03T13:52:39.007Z,1.13
2023-04-03T13:55:24.599Z,1.73
2023-04-03T13:57:59.898Z,1.33
2023-04-03T14:00:26.395Z,1.50
2023-04-03T14:02:55.269Z,1.50
2023-04-03T14:05:22.417Z,1.37
2023-04-03T14:07:48.886Z,1.73
2023-04-03T14:10:15.515Z,1.47
2023-04-03T14:12:42.316Z,1.47
2023-04-03T14:15:24.655Z,1.20
2023-04-03T14:17:52.557Z,1.00
2023-04-03T14:20:20.796Z,1.30
2023-04-03T14:22:47.379Z,1.10
2023-04-03T14:25:13.903Z,1.20
2023-04-03T14:27:42.732Z,1.23
2023-04-03T14:30:13.823Z,1.20
2023-04-03T14:32:40.590Z,0.60
2023-04-03T14:35:07.683Z,1.13
2023-04-03T14:37:34.497Z,1.40
2023-04-03T14:40:02.518Z,1.60
2023-04-03T14:42:31.816Z,1.00
2023-04-03T14:44:59.309Z,1.30
2023-04-03T14:47:31.932Z,1.30
2023-04-03T14:50:02.775Z,1.33
2023-04-03T14:52:34.141Z,1.07
2023-04-03T14:55:02.025Z,1.20
2023-04-03T14:57:29.799Z,2.23
2023-04-03T14:59:56.323Z,1.70
2023-04-03T15:02:30.581Z,1.30
2023-04-03T15:04:57.976Z,1.60
2023-04-03T15:07:26.215Z,2.07
2023-04-03T15:09:53.060Z,1.47
2023-04-03T15:12:19.633Z,1.73
2023-04-03T15:14:51.920Z,1.50
2023-04-03T15:17:22.831Z,1.30
2023-04-03T15:19:49.402Z,1.57
2023-04-03T15:22:17.541Z,1.50
2023-04-03T15:24:44.774Z,1.63
2023-04-03T15:27:12.388Z,2.03
2023-04-03T15:29:40.180Z,1.60
2023-04-03T15:32:06.857Z,1.50
2023-04-03T15:34:33.423Z,1.90
2023-04-03T15:36:59.897Z,1.80
2023-04-03T15:39:26.690Z,1.43
2023-04-03T15:42:07.405Z,1.70
2023-04-03T15:44:35.309Z,1.90
2023-04-03T15:47:02.419Z,1.80
2023-04-03T15:49:29.189Z,1.73
2023-04-03T15:51:55.811Z,2.10
2023-04-03T15:54:22.409Z,1.63
2023-04-03T15:56:50.421Z,1.73
2023-04-03T15:59:17.111Z,2.20
2023-04-03T16:01:43.766Z,1.63
2023-04-03T16:04:10.656Z,3.70
2023-04-03T16:06:37.919Z,2.07
2023-04-03T16:09:05.027Z,1.77
2023-04-03T16:11:31.707Z,2.00
2023-04-03T16:13:58.384Z,1.33
2023-04-03T16:16:25.546Z,1.77
2023-04-03T16:18:52.305Z,2.00
2023-04-03T16:21:18.886Z,1.60
2023-04-03T16:23:45.944Z,1.90
2023-04-03T16:26:12.556Z,2.00
2023-04-03T16:28:39.096Z,3.50
2023-04-03T16:31:06.174Z,1.77
2023-04-03T16:33:32.853Z,1.80
2023-04-03T16:35:59.760Z,3.23
2023-04-03T16:38:26.480Z,1.90
2023-04-03T16:40:57.436Z,2.13
2023-04-03T16:43:23.999Z,3.03
2023-04-03T16:45:50.542Z,1.67
2023-04-03T16:48:17.155Z,2.33
2023-04-03T16:50:48.843Z,2.00
2023-04-03T16:53:15.841Z,2.33
2023-04-03T16:55:42.628Z,1.90
2023-04-03T16:58:10.373Z,2.60
2023-04-03T17:00:37.469Z,2.60
2023-04-03T17:03:04.316Z,2.03
2023-04-03T17:05:31.041Z,1.97
2023-04-03T17:07:57.735Z,1.43
2023-04-03T17:10:24.852Z,2.47
2023-04-03T17:12:51.544Z,2.57
2023-04-03T17:15:18.382Z,1.80
2023-04-03T17:17:44.942Z,1.53
2023-04-03T17:20:11.748Z,2.33
2023-04-03T17:22:38.322Z,1.43
2023-04-03T17:25:05.376Z,3.20
2023-04-03T17:27:32.066Z,2.60
2023-04-03T17:29:59.882Z,1.67
2023-04-03T17:32:27.019Z,2.13
2023-04-03T17:34:53.858Z,1.63
2023-04-03T17:37:20.543Z,2.70
2023-04-03T17:39:47.094Z,2.67
2023-04-03T17:42:13.683Z,1.13
2023-04-03T17:44:40.332Z,2.20
2023-04-03T17:47:06.846Z,2.13
2023-04-03T17:49:33.542Z,2.37
2023-04-03T17:52:00.272Z,1.97
2023-04-03T17:54:26.843Z,2.03
2023-04-03T17:56:53.537Z,2.43
2023-04-03T17:59:20.436Z,2.43
2023-04-03T18:01:47.841Z,2.60
2023-04-03T18:04:14.746Z,2.63
2023-04-03T18:06:43.651Z,2.40
2023-04-03T18:09:12.571Z,2.27
2023-04-03T18:11:39.394Z,2.43
2023-04-03T18:14:08.829Z,1.90
2023-04-03T18:16:35.658Z,2.50
2023-04-03T18:19:21.255Z,2.43
2023-04-03T18:21:49.658Z,2.27
2023-04-03T18:24:17.397Z,2.20
2023-04-03T18:26:46.623Z,2.37
2023-04-03T18:29:13.255Z,2.70
2023-04-03T18:31:41.561Z,2.50
2023-04-03T18:34:08.205Z,2.60
2023-04-03T18:36:34.997Z,2.03
2023-04-03T18:39:01.594Z,1.90
2023-04-03T18:41:29.906Z,1.97
2023-04-03T18:43:57.689Z,1.73
2023-04-03T18:46:24.284Z,2.57
2023-04-03T18:48:51.638Z,2.27
2023-04-03T18:51:18.169Z,1.90
2023-04-03T18:53:44.822Z,1.83
2023-04-03T18:56:11.359Z,2.20
2023-04-03T18:58:37.887Z,2.27
2023-04-03T19:01:05.140Z,2.40
2023-04-03T19:03:33.153Z,2.00
2023-04-03T19:06:00.414Z,2.60
2023-04-03T19:08:27.734Z,2.20
2023-04-03T19:10:54.455Z,2.20
2023-04-03T19:13:21.074Z,2.10
2023-04-03T19:15:48.679Z,1.83
2023-04-03T19:18:15.352Z,2.13
2023-04-03T19:20:41.909Z,1.80
2023-04-03T19:23:08.979Z,1.80
2023-04-03T19:25:36.115Z,2.70
2023-04-03T19:28:02.684Z,2.47
2023-04-03T19:30:29.583Z,1.83
2023-04-03T19:32:56.364Z,2.20
2023-04-03T19:35:22.963Z,2.33
2023-04-03T19:37:51.302Z,2.30
2023-04-03T19:40:18.289Z,2.17
2023-04-03T19:42:45.273Z,2.33
2023-04-03T19:45:12.714Z,2.50
2023-04-03T19:47:39.240Z,2.80
2023-04-03T19:50:06.266Z,2.37
2023-04-03T19:52:32.751Z,2.70
2023-04-03T19:54:59.514Z,2.40
2023-04-03T19:57:26.946Z,3.67
2023-04-03T19:59:53.557Z,3.43
2023-04-03T20:02:21.486Z,2.03
2023-04-03T20:04:48.393Z,2.30
2023-04-03T20:07:15.092Z,1.93
2023-04-03T20:09:41.703Z,3.27
2023-04-03T20:12:10.672Z,3.07
2023-04-03T20:14:39.698Z,3.00
2023-04-03T20:17:06.379Z,1.90
2023-04-03T20:19:33.269Z,2.73
2023-04-03T20:22:00.762Z,3.00
2023-04-03T20:24:28.726Z,2.70
2023-04-03T20:26:57.180Z,2.87
2023-04-03T20:29:24.943Z,2.67
2023-04-03T20:31:53.720Z,2.37
2023-04-03T20:34:20.707Z,1.97
2023-04-03T20:36:49.724Z,2.17
2023-04-03T20:39:18.833Z,2.40
2023-04-03T20:41:45.611Z,2.63
2023-04-03T20:44:12.223Z,2.30
2023-04-03T20:46:52.278Z,2.70
2023-04-03T20:49:21.143Z,2.80
2023-04-03T20:51:47.806Z,2.47
2023-04-03T20:54:14.852Z,2.77
2023-04-03T20:56:41.362Z,3.57
2023-04-03T20:59:08.346Z,3.13
2023-04-03T21:01:35.962Z,2.17
2023-04-03T21:04:08.105Z,3.30
2023-04-03T21:06:55.354Z,2.87
2023-04-03T21:09:40.716Z,2.80
2023-04-03T21:12:26.382Z,3.57
2023-04-03T21:15:16.312Z,2.90
2023-04-03T21:18:02.003Z,2.57
2023-04-03T21:20:28.634Z,2.80
2023-04-03T21:22:55.231Z,3.67
2023-04-03T21:25:22.916Z,3.60
2023-04-03T21:27:49.458Z,3.90
2023-04-03T21:30:16.479Z,3.13
2023-04-03T21:32:43.222Z,2.47
2023-04-03T21:35:09.807Z,2.73
2023-04-03T21:37:36.516Z,2.40
2023-04-03T21:40:04.034Z,3.00
2023-04-03T21:42:30.812Z,2.60
2023-04-03T21:44:58.300Z,3.73
2023-04-03T21:47:24.832Z,2.80
2023-04-03T21:49:51.380Z,2.10
2023-04-03T21:52:19.039Z,2.80
2023-04-03T21:54:45.898Z,1.90
2023-04-03T21:57:13.629Z,1.87
2023-04-03T21:59:40.433Z,3.10
2023-04-03T22:02:07.364Z,2.27
2023-04-03T22:04:34.247Z,3.00
2023-04-03T22:07:00.845Z,3.47
2023-04-03T22:09:27.421Z,3.03
2023-04-03T22:11:55.044Z,3.38
2023-04-03T22:14:22.887Z,3.20
2023-04-03T22:16:49.513Z,2.72
2023-04-03T22:19:16.059Z,2.80
2023-04-03T22:21:43.459Z,3.60
2023-04-03T22:24:10.492Z,2.80
2023-04-03T22:26:38.275Z,2.95
2023-04-03T22:29:06.105Z,3.95
2023-04-03T22:31:33.003Z,3.10
2023-04-03T22:34:03.836Z,3.25
2023-04-03T22:36:30.727Z,4.35
2023-04-03T22:38:57.668Z,2.70
2023-04-03T22:41:24.440Z,5.72
2023-04-03T22:43:51.623Z,3.35
2023-04-03T22:46:18.278Z,3.20
2023-04-03T22:48:48.187Z,2.72
2023-04-03T22:51:14.740Z,3.60
2023-04-03T22:53:41.378Z,3.15
2023-04-03T22:56:08.743Z,4.07
2023-04-03T22:58:35.519Z,3.47
2023-04-03T23:01:06.782Z,3.55
2023-04-03T23:03:34.233Z,3.85
2023-04-03T23:06:04.028Z,3.15
2023-04-03T23:08:31.330Z,3.40
2023-04-03T23:10:58.571Z,3.55
2023-04-03T23:13:25.342Z,3.78
2023-04-03T23:15:59.198Z,2.90
2023-04-03T23:18:26.916Z,3.53
2023-04-03T23:20:54.691Z,4.50
2023-04-03T23:23:22.574Z,4.00
2023-04-03T23:25:59.545Z,3.97
2023-04-03T23:28:26.641Z,3.80
2023-04-03T23:31:01.320Z,3.95
2023-04-03T23:33:28.639Z,4.13
2023-04-03T23:35:55.193Z,3.83
2023-04-03T23:38:22.185Z,3.50
2023-04-03T23:40:48.680Z,3.30
2023-04-03T23:43:15.550Z,4.78
2023-04-03T23:45:42.468Z,3.20
2023-04-03T23:48:09.243Z,3.80
2023-04-03T23:50:37.516Z,4.15
2023-04-03T23:53:04.365Z,3.22
2023-04-03T23:55:30.865Z,3.60
2023-04-03T23:57:57.320Z,4.07
